sensor_id;sensor_type;location;lat;lon;timestamp;P1;durP1;ratioP1;P2;durP2;ratioP2
64868;SDS011;51349;52.424;10.840;2022-09-09T00:03:14;3.72;;;3.28;;
64868;SDS011;51349;52.424;10.840;2022-09-09T00:08:25;3.65;;;3.35;;
64868;SDS011;51349;52.424;10.840;2022-09-09T00:13:41;4.82;;;3.70;;
64868;SDS011;51349;52.424;10.840;2022-09-09T00:19:08;3.20;;;3.00;;
64868;SDS011;51349;52.424;10.840;2022-09-09T00:24:29;3.28;;;2.95;;
64868;SDS011;51349;52.424;10.840;2022-09-09T00:29:43;2.97;;;2.78;;
64868;SDS011;51349;52.424;10.840;2022-09-09T00:34:55;2.63;;;2.42;;
64868;SDS011;51349;52.424;10.840;2022-09-09T00:40:03;3.53;;;2.40;;
64868;SDS011;51349;52.424;10.840;2022-09-09T00:56:12;2.33;;;2.22;;
64868;SDS011;51349;52.424;10.840;2022-09-09T01:01:14;2.38;;;1.60;;
64868;SDS011;51349;52.424;10.840;2022-09-09T01:06:34;1.88;;;1.60;;
64868;SDS011;51349;52.424;10.840;2022-09-09T01:11:52;1.95;;;1.85;;
64868;SDS011;51349;52.424;10.840;2022-09-09T01:17:03;2.00;;;1.60;;
64868;SDS011;51349;52.424;10.840;2022-09-09T01:22:19;2.50;;;1.90;;
64868;SDS011;51349;52.424;10.840;2022-09-09T01:27:33;4.53;;;1.73;;
64868;SDS011;51349;52.424;10.840;2022-09-09T01:37:46;1.55;;;1.48;;
64868;SDS011;51349;52.424;10.840;2022-09-09T01:42:47;3.00;;;1.60;;
64868;SDS011;51349;52.424;10.840;2022-09-09T01:47:48;1.73;;;1.60;;
64868;SDS011;51349;52.424;10.840;2022-09-09T01:52:50;2.50;;;1.50;;
64868;SDS011;51349;52.424;10.840;2022-09-09T02:03:28;1.48;;;1.38;;
64868;SDS011;51349;52.424;10.840;2022-09-09T02:14:05;4.18;;;1.60;;
64868;SDS011;51349;52.424;10.840;2022-09-09T02:24:23;2.85;;;1.40;;
64868;SDS011;51349;52.424;10.840;2022-09-09T02:29:27;1.58;;;1.48;;
64868;SDS011;51349;52.424;10.840;2022-09-09T02:34:34;3.53;;;1.60;;
64868;SDS011;51349;52.424;10.840;2022-09-09T02:39:37;3.65;;;1.50;;
64868;SDS011;51349;52.424;10.840;2022-09-09T02:44:41;1.58;;;1.35;;
64868;SDS011;51349;52.424;10.840;2022-09-09T02:54:57;1.98;;;1.52;;
64868;SDS011;51349;52.424;10.840;2022-09-09T03:00:04;3.30;;;1.50;;
64868;SDS011;51349;52.424;10.840;2022-09-09T03:05:06;2.33;;;1.50;;
64868;SDS011;51349;52.424;10.840;2022-09-09T03:10:07;3.97;;;1.75;;
64868;SDS011;51349;52.424;10.840;2022-09-09T03:15:08;1.55;;;1.45;;
64868;SDS011;51349;52.424;10.840;2022-09-09T03:20:10;2.78;;;1.30;;
64868;SDS011;51349;52.424;10.840;2022-09-09T03:25:10;2.17;;;1.33;;
64868;SDS011;51349;52.424;10.840;2022-09-09T03:30:14;2.88;;;1.73;;
64868;SDS011;51349;52.424;10.840;2022-09-09T03:35:15;2.78;;;1.50;;
64868;SDS011;51349;52.424;10.840;2022-09-09T03:40:16;2.42;;;1.70;;
64868;SDS011;51349;52.424;10.840;2022-09-09T03:45:19;3.03;;;1.42;;
64868;SDS011;51349;52.424;10.840;2022-09-09T03:50:19;2.67;;;1.50;;
64868;SDS011;51349;52.424;10.840;2022-09-09T03:55:20;1.80;;;1.40;;
64868;SDS011;51349;52.424;10.840;2022-09-09T04:00:21;1.58;;;1.48;;
64868;SDS011;51349;52.424;10.840;2022-09-09T04:05:21;2.40;;;1.60;;
64868;SDS011;51349;52.424;10.840;2022-09-09T04:10:22;4.57;;;1.75;;
64868;SDS011;51349;52.424;10.840;2022-09-09T04:15:23;1.90;;;1.80;;
64868;SDS011;51349;52.424;10.840;2022-09-09T04:20:23;1.80;;;1.70;;
64868;SDS011;51349;52.424;10.840;2022-09-09T04:25:24;2.85;;;1.75;;
64868;SDS011;51349;52.424;10.840;2022-09-09T04:30:25;4.50;;;2.00;;
64868;SDS011;51349;52.424;10.840;2022-09-09T04:35:27;1.83;;;1.60;;
64868;SDS011;51349;52.424;10.840;2022-09-09T04:40:28;2.58;;;1.60;;
64868;SDS011;51349;52.424;10.840;2022-09-09T04:45:32;3.30;;;1.80;;
64868;SDS011;51349;52.424;10.840;2022-09-09T04:50:33;1.80;;;1.70;;
64868;SDS011;51349;52.424;10.840;2022-09-09T04:55:34;2.38;;;1.83;;
64868;SDS011;51349;52.424;10.840;2022-09-09T05:00:35;1.95;;;1.70;;
64868;SDS011;51349;52.424;10.840;2022-09-09T05:05:37;2.65;;;2.30;;
64868;SDS011;51349;52.424;10.840;2022-09-09T05:10:38;2.85;;;1.90;;
64868;SDS011;51349;52.424;10.840;2022-09-09T05:15:39;4.18;;;2.08;;
64868;SDS011;51349;52.424;10.840;2022-09-09T05:20:40;4.45;;;2.13;;
64868;SDS011;51349;52.424;10.840;2022-09-09T05:25:42;2.30;;;2.10;;
64868;SDS011;51349;52.424;10.840;2022-09-09T05:30:43;2.63;;;2.20;;
64868;SDS011;51349;52.424;10.840;2022-09-09T05:35:44;5.50;;;2.47;;
64868;SDS011;51349;52.424;10.840;2022-09-09T05:40:47;3.08;;;2.30;;
64868;SDS011;51349;52.424;10.840;2022-09-09T05:46:02;2.42;;;1.98;;
64868;SDS011;51349;52.424;10.840;2022-09-09T05:51:30;4.63;;;2.60;;
64868;SDS011;51349;52.424;10.840;2022-09-09T05:56:31;2.67;;;2.47;;
64868;SDS011;51349;52.424;10.840;2022-09-09T06:01:33;2.35;;;2.15;;
64868;SDS011;51349;52.424;10.840;2022-09-09T06:06:35;4.00;;;2.05;;
64868;SDS011;51349;52.424;10.840;2022-09-09T06:11:38;3.92;;;2.25;;
64868;SDS011;51349;52.424;10.840;2022-09-09T06:16:39;3.60;;;2.25;;
64868;SDS011;51349;52.424;10.840;2022-09-09T06:21:43;3.53;;;2.40;;
64868;SDS011;51349;52.424;10.840;2022-09-09T06:26:44;5.45;;;2.72;;
64868;SDS011;51349;52.424;10.840;2022-09-09T06:31:45;2.78;;;2.13;;
64868;SDS011;51349;52.424;10.840;2022-09-09T06:36:47;3.50;;;2.40;;
64868;SDS011;51349;52.424;10.840;2022-09-09T06:41:48;5.13;;;2.67;;
64868;SDS011;51349;52.424;10.840;2022-09-09T06:46:49;6.97;;;2.10;;
64868;SDS011;51349;52.424;10.840;2022-09-09T06:51:50;2.53;;;2.00;;
64868;SDS011;51349;52.424;10.840;2022-09-09T06:56:52;4.35;;;2.45;;
64868;SDS011;51349;52.424;10.840;2022-09-09T07:01:54;2.63;;;2.10;;
64868;SDS011;51349;52.424;10.840;2022-09-09T07:06:54;4.63;;;2.15;;
64868;SDS011;51349;52.424;10.840;2022-09-09T07:11:55;8.55;;;3.20;;
64868;SDS011;51349;52.424;10.840;2022-09-09T07:16:57;3.90;;;2.20;;
64868;SDS011;51349;52.424;10.840;2022-09-09T07:21:57;2.88;;;2.10;;
64868;SDS011;51349;52.424;10.840;2022-09-09T07:26:58;4.20;;;2.20;;
64868;SDS011;51349;52.424;10.840;2022-09-09T07:31:59;5.10;;;2.40;;
64868;SDS011;51349;52.424;10.840;2022-09-09T07:37:00;3.38;;;1.73;;
64868;SDS011;51349;52.424;10.840;2022-09-09T07:42:00;4.68;;;1.80;;
64868;SDS011;51349;52.424;10.840;2022-09-09T07:47:01;17.17;;;3.80;;
64868;SDS011;51349;52.424;10.840;2022-09-09T07:52:02;5.20;;;2.20;;
64868;SDS011;51349;52.424;10.840;2022-09-09T07:57:03;3.78;;;2.15;;
64868;SDS011;51349;52.424;10.840;2022-09-09T08:02:04;5.45;;;2.55;;
64868;SDS011;51349;52.424;10.840;2022-09-09T08:07:04;2.00;;;1.73;;
64868;SDS011;51349;52.424;10.840;2022-09-09T08:12:05;2.30;;;1.70;;
64868;SDS011;51349;52.424;10.840;2022-09-09T08:17:07;2.70;;;1.45;;
64868;SDS011;51349;52.424;10.840;2022-09-09T08:22:07;3.42;;;1.60;;
64868;SDS011;51349;52.424;10.840;2022-09-09T08:27:08;2.25;;;1.50;;
64868;SDS011;51349;52.424;10.840;2022-09-09T08:32:09;3.20;;;1.63;;
64868;SDS011;51349;52.424;10.840;2022-09-09T08:37:10;2.80;;;1.67;;
64868;SDS011;51349;52.424;10.840;2022-09-09T08:53:17;1.60;;;1.38;;
64868;SDS011;51349;52.424;10.840;2022-09-09T08:58:23;3.78;;;1.35;;
64868;SDS011;51349;52.424;10.840;2022-09-09T09:03:31;11.50;;;1.85;;
64868;SDS011;51349;52.424;10.840;2022-09-09T09:18:57;1.52;;;1.25;;
64868;SDS011;51349;52.424;10.840;2022-09-09T09:24:00;2.33;;;1.60;;
64868;SDS011;51349;52.424;10.840;2022-09-09T09:29:08;1.75;;;1.27;;
64868;SDS011;51349;52.424;10.840;2022-09-09T09:34:12;1.92;;;1.50;;
64868;SDS011;51349;52.424;10.840;2022-09-09T09:39:32;2.88;;;1.40;;
64868;SDS011;51349;52.424;10.840;2022-09-09T09:44:38;2.25;;;1.35;;
64868;SDS011;51349;52.424;10.840;2022-09-09T09:49:39;1.40;;;1.30;;
64868;SDS011;51349;52.424;10.840;2022-09-09T09:54:50;2.42;;;1.50;;
64868;SDS011;51349;52.424;10.840;2022-09-09T10:00:12;2.63;;;1.40;;
64868;SDS011;51349;52.424;10.840;2022-09-09T10:05:24;3.13;;;1.60;;
64868;SDS011;51349;52.424;10.840;2022-09-09T10:20:55;3.10;;;1.38;;
64868;SDS011;51349;52.424;10.840;2022-09-09T10:26:26;2.20;;;1.02;;
64868;SDS011;51349;52.424;10.840;2022-09-09T10:32:33;2.10;;;1.20;;
64868;SDS011;51349;52.424;10.840;2022-09-09T10:37:03;2.53;;;1.15;;
64868;SDS011;51349;52.424;10.840;2022-09-09T10:42:17;1.05;;;0.95;;
64868;SDS011;51349;52.424;10.840;2022-09-09T10:47:43;1.33;;;1.23;;
64868;SDS011;51349;52.424;10.840;2022-09-09T10:53:02;3.65;;;1.38;;
64868;SDS011;51349;52.424;10.840;2022-09-09T10:58:21;2.25;;;1.30;;
64868;SDS011;51349;52.424;10.840;2022-09-09T11:03:25;2.40;;;1.25;;
64868;SDS011;51349;52.424;10.840;2022-09-09T11:08:29;1.60;;;1.23;;
64868;SDS011;51349;52.424;10.840;2022-09-09T11:18:44;1.55;;;1.20;;
64868;SDS011;51349;52.424;10.840;2022-09-09T11:23:48;1.20;;;1.10;;
64868;SDS011;51349;52.424;10.840;2022-09-09T11:29:20;2.75;;;1.20;;
64868;SDS011;51349;52.424;10.840;2022-09-09T11:34:24;3.15;;;1.52;;
64868;SDS011;51349;52.424;10.840;2022-09-09T11:39:52;1.08;;;1.00;;
64868;SDS011;51349;52.424;10.840;2022-09-09T11:45:10;2.55;;;1.30;;
64868;SDS011;51349;52.424;10.840;2022-09-09T11:55:27;3.35;;;1.20;;
64868;SDS011;51349;52.424;10.840;2022-09-09T12:00:35;3.28;;;1.40;;
64868;SDS011;51349;52.424;10.840;2022-09-09T12:05:44;3.10;;;1.20;;
64868;SDS011;51349;52.424;10.840;2022-09-09T12:10:53;2.95;;;1.30;;
64868;SDS011;51349;52.424;10.840;2022-09-09T12:15:59;3.28;;;1.23;;
64868;SDS011;51349;52.424;10.840;2022-09-09T12:21:17;1.27;;;0.85;;
64868;SDS011;51349;52.424;10.840;2022-09-09T12:26:57;4.63;;;1.30;;
64868;SDS011;51349;52.424;10.840;2022-09-09T12:32:18;4.60;;;1.38;;
64868;SDS011;51349;52.424;10.840;2022-09-09T12:37:35;3.40;;;1.40;;
64868;SDS011;51349;52.424;10.840;2022-09-09T12:42:39;2.75;;;1.15;;
64868;SDS011;51349;52.424;10.840;2022-09-09T12:47:41;5.03;;;1.10;;
64868;SDS011;51349;52.424;10.840;2022-09-09T12:58:31;3.75;;;1.60;;
64868;SDS011;51349;52.424;10.840;2022-09-09T13:03:33;3.22;;;1.13;;
64868;SDS011;51349;52.424;10.840;2022-09-09T13:08:42;2.70;;;1.20;;
64868;SDS011;51349;52.424;10.840;2022-09-09T13:13:43;1.88;;;1.02;;
64868;SDS011;51349;52.424;10.840;2022-09-09T13:18:51;2.83;;;1.73;;
64868;SDS011;51349;52.424;10.840;2022-09-09T13:23:52;1.40;;;1.00;;
64868;SDS011;51349;52.424;10.840;2022-09-09T13:28:53;2.63;;;1.40;;
64868;SDS011;51349;52.424;10.840;2022-09-09T13:33:55;2.35;;;1.30;;
64868;SDS011;51349;52.424;10.840;2022-09-09T13:38:56;3.78;;;1.23;;
64868;SDS011;51349;52.424;10.840;2022-09-09T13:44:02;5.90;;;1.60;;
64868;SDS011;51349;52.424;10.840;2022-09-09T13:54:09;2.45;;;1.30;;
64868;SDS011;51349;52.424;10.840;2022-09-09T13:59:11;2.58;;;1.17;;
64868;SDS011;51349;52.424;10.840;2022-09-09T14:04:13;2.45;;;1.40;;
64868;SDS011;51349;52.424;10.840;2022-09-09T14:09:16;2.97;;;1.08;;
64868;SDS011;51349;52.424;10.840;2022-09-09T14:14:18;2.97;;;1.00;;
64868;SDS011;51349;52.424;10.840;2022-09-09T14:19:19;3.78;;;1.15;;
64868;SDS011;51349;52.424;10.840;2022-09-09T14:24:19;2.58;;;1.27;;
64868;SDS011;51349;52.424;10.840;2022-09-09T14:29:20;2.78;;;1.08;;
64868;SDS011;51349;52.424;10.840;2022-09-09T14:34:21;3.60;;;1.10;;
64868;SDS011;51349;52.424;10.840;2022-09-09T14:39:21;2.80;;;1.05;;
64868;SDS011;51349;52.424;10.840;2022-09-09T14:44:22;2.53;;;0.95;;
64868;SDS011;51349;52.424;10.840;2022-09-09T14:49:23;2.22;;;1.02;;
64868;SDS011;51349;52.424;10.840;2022-09-09T14:54:24;4.65;;;1.20;;
64868;SDS011;51349;52.424;10.840;2022-09-09T14:59:29;2.58;;;1.08;;
64868;SDS011;51349;52.424;10.840;2022-09-09T15:04:29;1.58;;;0.98;;
64868;SDS011;51349;52.424;10.840;2022-09-09T15:09:30;1.58;;;0.98;;
64868;SDS011;51349;52.424;10.840;2022-09-09T15:14:31;1.38;;;0.70;;
64868;SDS011;51349;52.424;10.840;2022-09-09T15:19:31;2.47;;;0.85;;
64868;SDS011;51349;52.424;10.840;2022-09-09T15:24:32;1.20;;;1.08;;
64868;SDS011;51349;52.424;10.840;2022-09-09T15:29:33;1.92;;;1.08;;
64868;SDS011;51349;52.424;10.840;2022-09-09T15:34:33;3.42;;;0.93;;
64868;SDS011;51349;52.424;10.840;2022-09-09T15:39:37;1.02;;;1.02;;
64868;SDS011;51349;52.424;10.840;2022-09-09T15:44:40;1.60;;;1.20;;
64868;SDS011;51349;52.424;10.840;2022-09-09T15:49:42;2.88;;;1.20;;
64868;SDS011;51349;52.424;10.840;2022-09-09T15:54:43;1.90;;;1.30;;
64868;SDS011;51349;52.424;10.840;2022-09-09T15:59:44;1.55;;;1.00;;
64868;SDS011;51349;52.424;10.840;2022-09-09T16:04:45;2.83;;;1.60;;
64868;SDS011;51349;52.424;10.840;2022-09-09T16:09:46;2.70;;;1.80;;
64868;SDS011;51349;52.424;10.840;2022-09-09T16:14:49;2.03;;;1.33;;
64868;SDS011;51349;52.424;10.840;2022-09-09T16:19:50;1.85;;;1.38;;
64868;SDS011;51349;52.424;10.840;2022-09-09T16:24:50;1.92;;;1.60;;
64868;SDS011;51349;52.424;10.840;2022-09-09T16:29:51;2.47;;;1.40;;
64868;SDS011;51349;52.424;10.840;2022-09-09T16:34:51;2.65;;;1.35;;
64868;SDS011;51349;52.424;10.840;2022-09-09T16:39:52;1.77;;;1.20;;
64868;SDS011;51349;52.424;10.840;2022-09-09T16:44:54;1.83;;;1.42;;
64868;SDS011;51349;52.424;10.840;2022-09-09T16:49:54;2.25;;;1.23;;
64868;SDS011;51349;52.424;10.840;2022-09-09T16:54:55;1.83;;;1.23;;
64868;SDS011;51349;52.424;10.840;2022-09-09T16:59:59;1.60;;;1.42;;
64868;SDS011;51349;52.424;10.840;2022-09-09T17:04:59;2.22;;;1.55;;
64868;SDS011;51349;52.424;10.840;2022-09-09T17:10:00;3.22;;;1.63;;
64868;SDS011;51349;52.424;10.840;2022-09-09T17:15:04;2.40;;;1.30;;
64868;SDS011;51349;52.424;10.840;2022-09-09T17:20:05;2.08;;;1.40;;
64868;SDS011;51349;52.424;10.840;2022-09-09T17:25:07;1.40;;;1.30;;
64868;SDS011;51349;52.424;10.840;2022-09-09T17:30:08;1.88;;;1.50;;
64868;SDS011;51349;52.424;10.840;2022-09-09T17:35:09;2.75;;;1.75;;
64868;SDS011;51349;52.424;10.840;2022-09-09T17:40:09;3.20;;;1.80;;
64868;SDS011;51349;52.424;10.840;2022-09-09T17:45:10;3.70;;;2.60;;
64868;SDS011;51349;52.424;10.840;2022-09-09T17:50:11;2.65;;;1.65;;
64868;SDS011;51349;52.424;10.840;2022-09-09T17:55:12;2.00;;;1.83;;
64868;SDS011;51349;52.424;10.840;2022-09-09T18:00:13;2.60;;;1.90;;
64868;SDS011;51349;52.424;10.840;2022-09-09T18:05:14;2.92;;;2.00;;
64868;SDS011;51349;52.424;10.840;2022-09-09T18:10:18;1.67;;;1.58;;
64868;SDS011;51349;52.424;10.840;2022-09-09T18:15:18;3.28;;;1.67;;
64868;SDS011;51349;52.424;10.840;2022-09-09T18:20:19;3.88;;;2.08;;
64868;SDS011;51349;52.424;10.840;2022-09-09T18:25:21;2.45;;;2.10;;
64868;SDS011;51349;52.424;10.840;2022-09-09T18:30:27;5.05;;;2.40;;
64868;SDS011;51349;52.424;10.840;2022-09-09T18:35:30;2.35;;;2.15;;
64868;SDS011;51349;52.424;10.840;2022-09-09T18:40:31;3.13;;;2.80;;
64868;SDS011;51349;52.424;10.840;2022-09-09T18:45:34;4.00;;;2.45;;
64868;SDS011;51349;52.424;10.840;2022-09-09T18:50:36;2.80;;;2.17;;
64868;SDS011;51349;52.424;10.840;2022-09-09T18:55:37;1.95;;;1.63;;
64868;SDS011;51349;52.424;10.840;2022-09-09T19:00:38;2.97;;;1.65;;
64868;SDS011;51349;52.424;10.840;2022-09-09T19:05:38;1.98;;;1.48;;
64868;SDS011;51349;52.424;10.840;2022-09-09T19:10:39;2.72;;;1.50;;
64868;SDS011;51349;52.424;10.840;2022-09-09T19:15:40;2.85;;;1.75;;
64868;SDS011;51349;52.424;10.840;2022-09-09T19:20:41;3.50;;;1.85;;
64868;SDS011;51349;52.424;10.840;2022-09-09T19:25:41;1.75;;;1.60;;
64868;SDS011;51349;52.424;10.840;2022-09-09T19:30:42;2.30;;;1.83;;
64868;SDS011;51349;52.424;10.840;2022-09-09T19:35:55;3.67;;;1.80;;
64868;SDS011;51349;52.424;10.840;2022-09-09T19:41:03;1.77;;;1.63;;
64868;SDS011;51349;52.424;10.840;2022-09-09T19:46:06;1.80;;;1.70;;
64868;SDS011;51349;52.424;10.840;2022-09-09T19:51:18;3.13;;;2.42;;
64868;SDS011;51349;52.424;10.840;2022-09-09T19:56:21;2.80;;;2.03;;
64868;SDS011;51349;52.424;10.840;2022-09-09T20:01:25;3.97;;;1.80;;
64868;SDS011;51349;52.424;10.840;2022-09-09T20:06:35;2.28;;;1.90;;
64868;SDS011;51349;52.424;10.840;2022-09-09T20:11:37;9.73;;;3.83;;
64868;SDS011;51349;52.424;10.840;2022-09-09T20:16:42;4.20;;;2.15;;
64868;SDS011;51349;52.424;10.840;2022-09-09T20:21:45;2.97;;;2.20;;
64868;SDS011;51349;52.424;10.840;2022-09-09T20:26:49;2.33;;;2.10;;
64868;SDS011;51349;52.424;10.840;2022-09-09T20:31:50;2.40;;;2.00;;
64868;SDS011;51349;52.424;10.840;2022-09-09T20:36:50;2.10;;;1.90;;
64868;SDS011;51349;52.424;10.840;2022-09-09T20:41:53;2.80;;;1.83;;
64868;SDS011;51349;52.424;10.840;2022-09-09T20:46:59;6.30;;;2.50;;
64868;SDS011;51349;52.424;10.840;2022-09-09T20:52:05;4.13;;;2.80;;
64868;SDS011;51349;52.424;10.840;2022-09-09T20:57:05;3.95;;;2.17;;
64868;SDS011;51349;52.424;10.840;2022-09-09T21:02:08;3.05;;;2.30;;
64868;SDS011;51349;52.424;10.840;2022-09-09T21:07:10;5.82;;;2.05;;
64868;SDS011;51349;52.424;10.840;2022-09-09T21:12:10;6.97;;;2.15;;
64868;SDS011;51349;52.424;10.840;2022-09-09T21:17:11;2.38;;;1.90;;
64868;SDS011;51349;52.424;10.840;2022-09-09T21:22:11;3.15;;;1.70;;
64868;SDS011;51349;52.424;10.840;2022-09-09T21:27:13;2.05;;;1.88;;
64868;SDS011;51349;52.424;10.840;2022-09-09T21:32:14;2.25;;;1.80;;
64868;SDS011;51349;52.424;10.840;2022-09-09T21:37:16;2.38;;;1.88;;
64868;SDS011;51349;52.424;10.840;2022-09-09T21:42:17;2.55;;;2.00;;
64868;SDS011;51349;52.424;10.840;2022-09-09T21:47:18;3.08;;;1.92;;
64868;SDS011;51349;52.424;10.840;2022-09-09T21:52:18;3.28;;;1.95;;
64868;SDS011;51349;52.424;10.840;2022-09-09T21:57:19;2.35;;;2.15;;
64868;SDS011;51349;52.424;10.840;2022-09-09T22:02:20;2.38;;;2.13;;
64868;SDS011;51349;52.424;10.840;2022-09-09T22:07:21;2.42;;;1.90;;
64868;SDS011;51349;52.424;10.840;2022-09-09T22:12:22;3.20;;;1.70;;
64868;SDS011;51349;52.424;10.840;2022-09-09T22:17:26;2.92;;;2.20;;
64868;SDS011;51349;52.424;10.840;2022-09-09T22:22:27;2.03;;;1.83;;
64868;SDS011;51349;52.424;10.840;2022-09-09T22:27:27;5.32;;;1.90;;
64868;SDS011;51349;52.424;10.840;2022-09-09T22:32:28;3.30;;;2.08;;
64868;SDS011;51349;52.424;10.840;2022-09-09T22:37:28;2.22;;;1.90;;
64868;SDS011;51349;52.424;10.840;2022-09-09T22:42:29;2.75;;;2.08;;
64868;SDS011;51349;52.424;10.840;2022-09-09T22:47:30;5.20;;;2.22;;
64868;SDS011;51349;52.424;10.840;2022-09-09T22:52:30;3.00;;;2.05;;
64868;SDS011;51349;52.424;10.840;2022-09-09T22:57:31;7.03;;;2.05;;
64868;SDS011;51349;52.424;10.840;2022-09-09T23:02:31;4.07;;;1.98;;
64868;SDS011;51349;52.424;10.840;2022-09-09T23:07:34;2.35;;;2.08;;
64868;SDS011;51349;52.424;10.840;2022-09-09T23:12:35;2.90;;;2.60;;
64868;SDS011;51349;52.424;10.840;2022-09-09T23:17:39;3.55;;;2.20;;
64868;SDS011;51349;52.424;10.840;2022-09-09T23:22:40;2.83;;;2.00;;
64868;SDS011;51349;52.424;10.840;2022-09-09T23:27:40;4.00;;;2.08;;
64868;SDS011;51349;52.424;10.840;2022-09-09T23:32:41;1.92;;;1.80;;
64868;SDS011;51349;52.424;10.840;2022-09-09T23:37:46;2.15;;;1.95;;
64868;SDS011;51349;52.424;10.840;2022-09-09T23:42:47;2.22;;;1.65;;
64868;SDS011;51349;52.424;10.840;2022-09-09T23:47:47;4.07;;;1.80;;
64868;SDS011;51349;52.424;10.840;2022-09-09T23:52:48;2.50;;;2.03;;
64868;SDS011;51349;52.424;10.840;2022-09-09T23:57:48;3.83;;;2.00;;
